^^

..:: Storico WU ::..




Lo storico viene creato da WUnderground con i dati che la stazione Meteomincio invia al loro server. L' aggiornamento viene fatto ogni 5 minuti circa, tuttavia possono esserci intervalli pi¨ ampi a causa di errori, interruzioni di servizio o problemi nell' invio tramite FTP.


Storico stazione MeteoMincio
Giorno Sommario per Dicembre 06, 2022 Unità:  Metrico    Inglese   Entrambi
Giorno Settimana Mese Anno
  Max: Min: Media:
Temperatura: 6.4 °C 2.8 °C 4.3 °C
Dew Point: 5.8 °C 2.3 °C 3.8 °C
Umidità: 97% 95% 96%
Velocità vento: 12.7km/h 0km/h 5.3km/h
Raffica: 20.9km/h - -
Direzione- - SW
Pressione: 1017.6 hPa 1015.3 hPa -
Precipitazioni: 0.2 mm    
 
 
Tabulato Dati per Dicembre 06, 2022
Ora Temperatura Dew Point Pressione Direzione Velocità vento Raffica Umidità Intensità pioggia (oraria) Info solare Situazione
00:04 6.4 °C 5.8 °C 1017.2 hPa SSW 6.3 km/h 11.3 km/h 96% 0.0 mm 0 W/m2
00:09 6.3 °C 5.7 °C 1017.2 hPa SW 7 km/h 11.3 km/h 96% 0.0 mm 0 W/m2
00:14 6.3 °C 5.7 °C 1017.2 hPa WSW 7.4 km/h 13 km/h 96% 0.0 mm 0 W/m2
00:19 6.2 °C 5.6 °C 1017.2 hPa WSW 6.1 km/h 12.9 km/h 96% 0.0 mm 0 W/m2
00:24 6.2 °C 5.6 °C 1017.3 hPa WSW 5.9 km/h 9.7 km/h 96% 0.0 mm 0 W/m2
00:29 6 °C 5.4 °C 1017.3 hPa West 5.7 km/h 9.7 km/h 96% 0.0 mm 0 W/m2
00:34 6 °C 5.4 °C 1017.3 hPa WSW 5.8 km/h 8 km/h 96% 0.0 mm 0 W/m2
00:39 5.8 °C 5.2 °C 1017.2 hPa West 5.6 km/h 8 km/h 96% 0.0 mm 0 W/m2
00:44 5.7 °C 5.1 °C 1017.2 hPa West 5.4 km/h 8 km/h 96% 0.0 mm 0 W/m2
00:49 5.6 °C 5 °C 1017.2 hPa West 5.1 km/h 8 km/h 96% 0.0 mm 0 W/m2
00:54 5.6 °C 5 °C 1017.2 hPa WNW 4.9 km/h 8 km/h 96% 0.0 mm 0 W/m2
00:59 5.6 °C 5 °C 1017.2 hPa WNW 6.2 km/h 9.7 km/h 96% 0.0 mm 0 W/m2
01:04 5.6 °C 5 °C 1017.3 hPa WNW 5.6 km/h 9.7 km/h 96% 0.0 mm 0 W/m2
01:09 5.6 °C 5 °C 1017.3 hPa WNW 6.3 km/h 8 km/h 96% 0.0 mm 0 W/m2
01:14 5.6 °C 5 °C 1017.3 hPa WNW 5.6 km/h 8 km/h 96% 0.0 mm 0 W/m2
01:19 5.6 °C 5 °C 1017.3 hPa WNW 5.9 km/h 9.7 km/h 96% 0.0 mm 0 W/m2
01:24 5.6 °C 5 °C 1017.3 hPa WNW 6.3 km/h 9.3 km/h 96% 0.0 mm 0 W/m2
01:29 5.6 °C 5 °C 1017.2 hPa WNW 5.6 km/h 9.7 km/h 96% 0.0 mm 0 W/m2
01:34 5.7 °C 5.1 °C 1017.2 hPa WNW 5.9 km/h 9.7 km/h 96% 0.0 mm 0 W/m2
01:39 5.7 °C 5.1 °C 1017.2 hPa WNW 8.6 km/h 17.7 km/h 96% 0.0 mm 0 W/m2
01:44 5.9 °C 5.2 °C 1017.2 hPa NW 10.8 km/h 19.3 km/h 96% 0.0 mm 0 W/m2
01:49 6 °C 5.4 °C 1017.1 hPa WNW 10.2 km/h 19.3 km/h 96% 0.0 mm 0 W/m2
01:54 6 °C 5.4 °C 1017.1 hPa WNW 9.7 km/h 16.1 km/h 96% 0.0 mm 0 W/m2
01:59 6 °C 5.4 °C 1017.1 hPa WNW 11.2 km/h 16.7 km/h 96% 0.0 mm 0 W/m2
02:04 5.9 °C 5.3 °C 1017.1 hPa West 10.6 km/h 16.7 km/h 96% 0.0 mm 0 W/m2
02:09 5.9 °C 5.3 °C 1017.1 hPa WNW 10.4 km/h 18.5 km/h 96% 0.0 mm 0 W/m2
02:14 5.9 °C 5.3 °C 1017.0 hPa WNW 12 km/h 19.3 km/h 96% 0.0 mm 0 W/m2
02:19 5.9 °C 5.3 °C 1017.0 hPa West 10.2 km/h 19.3 km/h 96% 0.0 mm 0 W/m2
02:24 5.9 °C 5.3 °C 1016.9 hPa West 9.2 km/h 14.8 km/h 96% 0.0 mm 0 W/m2
02:29 5.9 °C 5.2 °C 1016.9 hPa West 10.7 km/h 18.5 km/h 96% 0.0 mm 0 W/m2
02:34 5.8 °C 5.2 °C 1016.9 hPa West 10 km/h 19.3 km/h 96% 0.0 mm 0 W/m2
02:39 5.7 °C 5.1 °C 1016.9 hPa West 9.9 km/h 16.7 km/h 96% 0.0 mm 0 W/m2
02:44 5.7 °C 5.1 °C 1016.9 hPa West 8.4 km/h 16.1 km/h 96% 0.0 mm 0 W/m2
02:49 5.6 °C 5 °C 1016.9 hPa West 8.1 km/h 13 km/h 96% 0.0 mm 0 W/m2
02:54 5.6 °C 5 °C 1016.9 hPa West 7.4 km/h 12.9 km/h 96% 0.0 mm 0 W/m2
02:59 5.6 °C 5 °C 1016.8 hPa WNW 7.6 km/h 12.9 km/h 96% 0.0 mm 0 W/m2
03:04 5.7 °C 5.1 °C 1016.8 hPa WNW 8.9 km/h 14.8 km/h 96% 0.0 mm 0 W/m2
03:09 5.7 °C 5 °C 1016.8 hPa WNW 8.1 km/h 14.5 km/h 96% 0.0 mm 0 W/m2
03:14 5.6 °C 5 °C 1016.8 hPa West 7 km/h 12.9 km/h 96% 0.0 mm 0 W/m2
03:19 5.5 °C 4.9 °C 1016.8 hPa WNW 7.2 km/h 11.3 km/h 96% 0.0 mm 0 W/m2
03:24 5.5 °C 4.9 °C 1016.7 hPa WNW 7.7 km/h 11.3 km/h 96% 0.0 mm 0 W/m2
03:29 5.5 °C 4.9 °C 1016.7 hPa WNW 7 km/h 11.3 km/h 96% 0.0 mm 0 W/m2
03:34 5.5 °C 4.9 °C 1016.7 hPa WNW 8.6 km/h 13 km/h 96% 0.0 mm 0 W/m2
03:39 5.5 °C 4.9 °C 1016.7 hPa WNW 8.7 km/h 13 km/h 96% 0.0 mm 0 W/m2
03:44 5.4 °C 4.8 °C 1016.6 hPa NW 7.3 km/h 13 km/h 96% 0.0 mm 0 W/m2
03:49 5.3 °C 4.7 °C 1016.6 hPa WNW 7.5 km/h 13 km/h 96% 0.0 mm 0 W/m2
03:54 5.3 °C 4.6 °C 1016.5 hPa WNW 8.2 km/h 13 km/h 96% 0.0 mm 0 W/m2
03:59 5.2 °C 4.6 °C 1016.5 hPa WNW 7.3 km/h 12.9 km/h 96% 0.0 mm 0 W/m2
04:04 5.1 °C 4.5 °C 1016.4 hPa WNW 8 km/h 11.3 km/h 96% 0.0 mm 0 W/m2
04:09 5.2 °C 4.5 °C 1016.5 hPa WNW 8.6 km/h 11.3 km/h 96% 0.0 mm 0 W/m2
04:14 5.2 °C 4.6 °C 1016.5 hPa WNW 7.6 km/h 11.3 km/h 96% 0.0 mm 0 W/m2
04:19 5.2 °C 4.6 °C 1016.5 hPa WNW 6.3 km/h 11.3 km/h 96% 0.0 mm 0 W/m2
04:24 5.1 °C 4.5 °C 1016.5 hPa West 4.6 km/h 8 km/h 96% 0.0 mm 0 W/m2
04:29 5.1 °C 4.5 °C 1016.5 hPa WNW 4.1 km/h 8 km/h 96% 0.0 mm 0 W/m2
04:34 4.9 °C 4.3 °C 1016.5 hPa West 4.1 km/h 6.4 km/h 96% 0.0 mm 0 W/m2
04:39 4.8 °C 4.2 °C 1016.5 hPa WSW 5.4 km/h 12.9 km/h 96% 0.0 mm 0 W/m2
04:44 4.6 °C 4 °C 1016.5 hPa WSW 7.9 km/h 13 km/h 96% 0.0 mm 0 W/m2
04:49 4.4 °C 3.8 °C 1016.5 hPa WSW 5.6 km/h 12.9 km/h 96% 0.0 mm 0 W/m2
04:54 4.2 °C 3.6 °C 1016.4 hPa WSW 5.7 km/h 9.7 km/h 96% 0.0 mm 0 W/m2
04:59 4.1 °C 3.5 °C 1016.4 hPa WSW 7.6 km/h 12.9 km/h 96% 0.0 mm 0 W/m2
05:04 4 °C 3.4 °C 1016.4 hPa West 8.2 km/h 13 km/h 96% 0.0 mm 0 W/m2
05:09 4 °C 3.4 °C 1016.4 hPa West 7.8 km/h 11.3 km/h 96% 0.0 mm 0 W/m2
05:14 4 °C 3.4 °C 1016.4 hPa West 7.7 km/h 11.3 km/h 96% 0.0 mm 0 W/m2
05:19 4 °C 3.4 °C 1016.4 hPa West 6.1 km/h 11.3 km/h 96% 0.0 mm 0 W/m2
05:24 4 °C 3.4 °C 1016.4 hPa West 8.6 km/h 16.7 km/h 96% 0.2 mm 0 W/m2
05:29 4 °C 3.4 °C 1016.3 hPa West 8.3 km/h 16.1 km/h 96% 0.2 mm 0 W/m2
05:34 3.9 °C 3.4 °C 1016.3 hPa West 11.4 km/h 16.7 km/h 96% 0.2 mm 0 W/m2
05:39 3.9 °C 3.3 °C 1016.4 hPa West 9.3 km/h 16.7 km/h 96% 0.2 mm 0 W/m2
05:44 3.8 °C 3.2 °C 1016.4 hPa West 9.4 km/h 13 km/h 96% 0.2 mm 0 W/m2
05:49 3.7 °C 3.2 °C 1016.3 hPa WSW 7.2 km/h 12.9 km/h 96% 0.2 mm 0 W/m2
05:54 3.6 °C 3.1 °C 1016.3 hPa WSW 7.1 km/h 12.9 km/h 96% 0.2 mm 0 W/m2
05:59 3.6 °C 3 °C 1016.3 hPa West 7.9 km/h 13 km/h 96% 0.2 mm 0 W/m2
06:04 3.5 °C 2.9 °C 1016.3 hPa West 8.1 km/h 12.9 km/h 96% 0.2 mm 0 W/m2
06:09 3.5 °C 2.9 °C 1016.4 hPa West 7 km/h 13 km/h 96% 0.2 mm 0 W/m2
06:14 3.5 °C 2.9 °C 1016.4 hPa West 8.4 km/h 17.7 km/h 96% 0.2 mm 0 W/m2
06:19 3.4 °C 2.9 °C 1016.4 hPa West 11.6 km/h 19.3 km/h 96% 0.2 mm 0 W/m2
06:24 3.4 °C 2.8 °C 1016.4 hPa West 9.5 km/h 19.3 km/h 96% 0.2 mm 0 W/m2
06:29 3.4 °C 2.8 °C 1016.4 hPa West 8.8 km/h 13 km/h 96% 0.2 mm 0 W/m2
06:34 3.4 °C 2.8 °C 1016.4 hPa West 7.9 km/h 13 km/h 96% 0.0 mm 0 W/m2
06:39 3.3 °C 2.8 °C 1016.3 hPa West 10.4 km/h 16.7 km/h 96% 0.0 mm 0 W/m2
06:44 3.3 °C 2.8 °C 1016.3 hPa West 8.6 km/h 16.1 km/h 96% 0.0 mm 0 W/m2
06:49 3.3 °C 2.7 °C 1016.3 hPa WSW 10.9 km/h 14.8 km/h 96% 0.0 mm 0 W/m2
06:54 3.2 °C 2.7 °C 1016.3 hPa WSW 9.8 km/h 16.1 km/h 96% 0.0 mm 0 W/m2
06:59 3.2 °C 2.6 °C 1016.4 hPa West 11.3 km/h 16.7 km/h 96% 0.0 mm 0 W/m2
07:04 3.2 °C 2.6 °C 1016.4 hPa West 12.7 km/h 18.5 km/h 96% 0.0 mm 0 W/m2
07:09 3.2 °C 2.6 °C 1016.4 hPa West 9.8 km/h 19.3 km/h 96% 0.0 mm 0 W/m2
07:14 3.2 °C 2.6 °C 1016.4 hPa WSW 9.2 km/h 14.8 km/h 96% 0.0 mm 0 W/m2
07:19 3.1 °C 2.6 °C 1016.4 hPa West 11.7 km/h 18.5 km/h 96% 0.0 mm 0 W/m2
07:24 3.1 °C 2.5 °C 1016.4 hPa WSW 10.3 km/h 19.3 km/h 96% 0.0 mm 0 W/m2
07:29 3.1 °C 2.5 °C 1016.4 hPa WSW 11 km/h 19.3 km/h 96% 0.0 mm 0 W/m2
07:34 3.1 °C 2.5 °C 1016.4 hPa WSW 12.1 km/h 19.3 km/h 96% 0.0 mm 0 W/m2
07:39 3 °C 2.5 °C 1016.4 hPa WSW 11.6 km/h 19.3 km/h 96% 0.0 mm 0 W/m2
07:44 3 °C 2.4 °C 1016.5 hPa WSW 10.9 km/h 20.9 km/h 96% 0.0 mm 0 W/m2
07:49 2.9 °C 2.4 °C 1016.6 hPa WSW 9.9 km/h 20.9 km/h 96% 0.0 mm 0 W/m2
07:54 2.9 °C 2.4 °C 1016.6 hPa WSW 12.4 km/h 19.3 km/h 96% 0.0 mm 5 W/m2
07:59 2.9 °C 2.4 °C 1016.7 hPa WSW 10.7 km/h 19.3 km/h 96% 0.0 mm 9 W/m2
08:04 2.9 °C 2.3 °C 1016.8 hPa WSW 10.5 km/h 16.1 km/h 96% 0.0 mm 11 W/m2
08:09 2.8 °C 2.3 °C 1016.8 hPa West 9.6 km/h 19.3 km/h 96% 0.0 mm 16 W/m2
08:14 2.8 °C 2.3 °C 1016.8 hPa WSW 8.6 km/h 19.3 km/h 96% 0.0 mm 18 W/m2
08:19 2.8 °C 2.3 °C 1016.8 hPa WSW 9.2 km/h 19.3 km/h 96% 0.0 mm 21 W/m2
08:24 2.9 °C 2.3 °C 1016.8 hPa WSW 7.9 km/h 19.3 km/h 96% 0.0 mm 25 W/m2
08:29 2.9 °C 2.3 °C 1016.8 hPa WSW 10.2 km/h 16.7 km/h 96% 0.0 mm 28 W/m2
08:34 2.9 °C 2.4 °C 1016.8 hPa West 10.3 km/h 16.1 km/h 96.2% 0.0 mm 35 W/m2
08:39 2.9 °C 2.4 °C 1016.8 hPa WSW 6.9 km/h 14.5 km/h 96.5% 0.0 mm 44 W/m2
08:44 3 °C 2.6 °C 1016.9 hPa WSW 8.2 km/h 13 km/h 97% 0.0 mm 47 W/m2
08:49 3 °C 2.5 °C 1017.0 hPa WSW 9.7 km/h 16.7 km/h 96.2% 0.0 mm 28 W/m2
08:54 3 °C 2.4 °C 1017.0 hPa West 10.5 km/h 16.7 km/h 96% 0.0 mm 39 W/m2
08:59 3 °C 2.5 °C 1017.0 hPa West 7.8 km/h 16.1 km/h 96.5% 0.0 mm 42 W/m2
09:04 3 °C 2.6 °C 1017.0 hPa WSW 7.3 km/h 14.5 km/h 97% 0.0 mm 54 W/m2
09:09 3.1 °C 2.7 °C 1017.1 hPa WSW 7.4 km/h 13 km/h 97% 0.0 mm 77 W/m2
09:14 3.2 °C 2.7 °C 1017.1 hPa West 7.7 km/h 13 km/h 96.2% 0.0 mm 74 W/m2
09:19 3.2 °C 2.6 °C 1017.1 hPa West 7.7 km/h 12.9 km/h 96% 0.0 mm 86 W/m2
09:24 3.3 °C 2.7 °C 1017.1 hPa WNW 5.1 km/h 11.3 km/h 96.4% 0.0 mm 81 W/m2
09:29 3.3 °C 2.8 °C 1017.1 hPa West 7.5 km/h 13 km/h 96.5% 0.0 mm 84 W/m2
09:34 3.3 °C 2.7 °C 1017.2 hPa WNW 6.7 km/h 12.9 km/h 96.2% 0.0 mm 84 W/m2
09:39 3.3 °C 2.7 °C 1017.2 hPa WNW 6.4 km/h 11.3 km/h 96% 0.0 mm 88 W/m2
09:44 3.3 °C 2.7 °C 1017.2 hPa WNW 6.6 km/h 11.3 km/h 96% 0.0 mm 88 W/m2
09:49 3.3 °C 2.8 °C 1017.3 hPa WNW 6.3 km/h 11.3 km/h 96.4% 0.0 mm 86 W/m2
09:54 3.3 °C 2.9 °C 1017.3 hPa WNW 7.4 km/h 11.3 km/h 97% 0.0 mm 90 W/m2
09:59 3.4 °C 2.9 °C 1017.3 hPa West 8.1 km/h 11.3 km/h 97% 0.0 mm 93 W/m2
10:04 3.4 °C 3 °C 1017.4 hPa West 7 km/h 11.3 km/h 97% 0.0 mm 88 W/m2
10:09 3.5 °C 3 °C 1017.4 hPa WNW 7.9 km/h 12.9 km/h 97% 0.0 mm 84 W/m2
10:14 3.6 °C 3.2 °C 1017.5 hPa West 7.9 km/h 13 km/h 97% 0.0 mm 109 W/m2
10:19 3.6 °C 3.2 °C 1017.5 hPa WNW 8.7 km/h 13 km/h 97% 0.0 mm 125 W/m2
10:24 3.7 °C 3.2 °C 1017.5 hPa WNW 7.2 km/h 12.9 km/h 97% 0.0 mm 76 W/m2
10:29 3.7 °C 3.3 °C 1017.5 hPa West 6.6 km/h 11.3 km/h 97% 0.0 mm 79 W/m2
10:34 3.8 °C 3.4 °C 1017.6 hPa WNW 5.9 km/h 11.3 km/h 97% 0.0 mm 65 W/m2
10:39 3.8 °C 3.3 °C 1017.6 hPa NW 6.1 km/h 11.3 km/h 97% 0.0 mm 74 W/m2
10:44 3.8 °C 3.4 °C 1017.6 hPa NW 5.6 km/h 11.3 km/h 97% 0.0 mm 72 W/m2
10:49 4 °C 3.5 °C 1017.5 hPa NW 6.2 km/h 11.3 km/h 97% 0.0 mm 81 W/m2
10:54 4 °C 3.5 °C 1017.5 hPa WNW 6.7 km/h 11.3 km/h 97% 0.0 mm 104 W/m2
10:59 3.9 °C 3.5 °C 1017.5 hPa West 7.7 km/h 11.3 km/h 97% 0.0 mm 98 W/m2
11:04 4 °C 3.5 °C 1017.5 hPa WNW 7.2 km/h 11.3 km/h 97% 0.0 mm 95 W/m2
11:09 4 °C 3.5 °C 1017.5 hPa West 7.3 km/h 11.3 km/h 97% 0.0 mm 116 W/m2
11:14 3.9 °C 3.5 °C 1017.4 hPa WNW 7.3 km/h 13 km/h 97% 0.0 mm 135 W/m2
11:19 3.9 °C 3.5 °C 1017.3 hPa WNW 7.7 km/h 13 km/h 97% 0.0 mm 123 W/m2
11:24 4 °C 3.6 °C 1017.3 hPa NW 5.9 km/h 12.9 km/h 97% 0.0 mm 116 W/m2
11:29 4.2 °C 3.7 °C 1017.2 hPa WNW 6.2 km/h 11.3 km/h 97% 0.0 mm 151 W/m2
11:34 4.1 °C 3.7 °C 1017.2 hPa West 6.9 km/h 13 km/h 97% 0.0 mm 151 W/m2
11:39 4 °C 3.6 °C 1017.1 hPa NW 6.2 km/h 12.9 km/h 97% 0.0 mm 105 W/m2
11:44 4.1 °C 3.6 °C 1017.1 hPa NNW 6.9 km/h 11.3 km/h 97% 0.0 mm 88 W/m2
11:49 4.2 °C 3.7 °C 1017.1 hPa NNW 5.6 km/h 11.3 km/h 97% 0.0 mm 95 W/m2
11:54 4.2 °C 3.7 °C 1017.2 hPa NNW 4.8 km/h 11.3 km/h 97% 0.0 mm 97 W/m2
11:59 4.1 °C 3.7 °C 1017.1 hPa NW 4.5 km/h 8 km/h 97% 0.0 mm 98 W/m2
12:04 4.1 °C 3.7 °C 1017.1 hPa West 3.2 km/h 8 km/h 97% 0.0 mm 86 W/m2
12:09 4.1 °C 3.7 °C 1017.1 hPa NW 4.1 km/h 9.7 km/h 97% 0.0 mm 104 W/m2
12:14 4.3 °C 3.8 °C 1017.1 hPa NNW 3.8 km/h 9.7 km/h 97% 0.0 mm 91 W/m2
12:19 4.4 °C 3.9 °C 1017.1 hPa NW 3.4 km/h 8 km/h 97% 0.0 mm 98 W/m2
12:24 4.3 °C 3.8 °C 1017.0 hPa WNW 4.2 km/h 14.5 km/h 97% 0.0 mm 114 W/m2
12:29 4.3 °C 3.9 °C 1016.9 hPa NW 6.3 km/h 14.8 km/h 97% 0.0 mm 139 W/m2
12:34 4.4 °C 4 °C 1016.9 hPa NNW 5.4 km/h 14.5 km/h 97% 0.0 mm 130 W/m2
12:39 4.6 °C 4.1 °C 1016.8 hPa NNW 5.9 km/h 11.3 km/h 97% 0.0 mm 120 W/m2
12:44 4.5 °C 4.1 °C 1016.8 hPa NW 5.9 km/h 11.1 km/h 97% 0.0 mm 135 W/m2
12:49 4.8 °C 4.3 °C 1016.8 hPa NNW 4 km/h 11.3 km/h 97% 0.0 mm 135 W/m2
12:54 4.8 °C 4.3 °C 1016.7 hPa NNW 1.1 km/h 6.4 km/h 97% 0.0 mm 98 W/m2
12:59 4.9 °C 4.5 °C 1016.6 hPa North 2.8 km/h 6.4 km/h 97% 0.0 mm 123 W/m2
13:04 5 °C 4.5 °C 1016.5 hPa North 4.9 km/h 8 km/h 97% 0.0 mm 139 W/m2
13:09 5 °C 4.6 °C 1016.5 hPa North 5.1 km/h 8 km/h 97% 0.0 mm 109 W/m2
13:14 5 °C 4.4 °C 1016.5 hPa North 4.2 km/h 8 km/h 96.6% 0.0 mm 107 W/m2
13:19 4.9 °C 4.4 °C 1016.5 hPa NNE 5.3 km/h 11.3 km/h 96.5% 0.0 mm 137 W/m2
13:24 5.1 °C 4.5 °C 1016.4 hPa NNW 5.2 km/h 11.3 km/h 96.5% 0.0 mm 176 W/m2
13:29 5 °C 4.4 °C 1016.4 hPa North 5.1 km/h 9.7 km/h 96% 0.0 mm 148 W/m2
13:34 4.9 °C 4.3 °C 1016.3 hPa NNE 3.5 km/h 9.7 km/h 96% 0.0 mm 127 W/m2
13:39 4.9 °C 4.3 °C 1016.1 hPa NE 3.9 km/h 8 km/h 96% 0.0 mm 118 W/m2
13:44 4.9 °C 4.3 °C 1016.1 hPa NNE 4.4 km/h 6.4 km/h 96% 0.0 mm 114 W/m2
13:49 4.9 °C 4.2 °C 1016.0 hPa NNE 4.4 km/h 9.7 km/h 96% 0.0 mm 91 W/m2
13:54 4.7 °C 4.1 °C 1016.0 hPa NE 6.1 km/h 11.3 km/h 96% 0.0 mm 88 W/m2
13:59 4.7 °C 4.1 °C 1016.0 hPa NE 6.3 km/h 9.7 km/h 96% 0.0 mm 93 W/m2
14:04 4.7 °C 4.1 °C 1016.0 hPa ENE 6.1 km/h 9.7 km/h 96% 0.0 mm 97 W/m2
14:09 4.7 °C 4.1 °C 1016.0 hPa NE 4 km/h 9.7 km/h 96% 0.0 mm 86 W/m2
14:14 4.6 °C 4.1 °C 1016.0 hPa North 3.7 km/h 9.7 km/h 96% 0.0 mm 93 W/m2
14:19 4.8 °C 4.2 °C 1016.0 hPa NE 2.7 km/h 6.4 km/h 96% 0.0 mm 90 W/m2
14:24 4.7 °C 4.1 °C 1015.9 hPa East 2.3 km/h 8 km/h 96% 0.0 mm 88 W/m2
14:29 4.6 °C 4.1 °C 1016.0 hPa East 0.7 km/h 8 km/h 96% 0.0 mm 81 W/m2
14:34 4.8 °C 4.2 °C 1016.0 hPa ENE 3.7 km/h 8 km/h 96% 0.0 mm 69 W/m2
14:39 5 °C 4.3 °C 1016.0 hPa NE 3.1 km/h 8 km/h 96% 0.0 mm 70 W/m2
14:44 5 °C 4.4 °C 1015.9 hPa NNE 1.3 km/h 6.4 km/h 96% 0.0 mm 76 W/m2
14:49 5 °C 4.4 °C 1015.8 hPa North 2.6 km/h 5.6 km/h 96% 0.0 mm 72 W/m2
14:54 5.1 °C 4.5 °C 1015.9 hPa North 1.5 km/h 5.6 km/h 96% 0.0 mm 67 W/m2
14:59 5.1 °C 4.5 °C 1015.9 hPa ENE 2.6 km/h 8 km/h 96% 0.0 mm 53 W/m2
15:04 4.9 °C 4.3 °C 1015.8 hPa East 5.6 km/h 8 km/h 96% 0.0 mm 58 W/m2
15:09 4.8 °C 4.2 °C 1015.8 hPa East 4.7 km/h 8 km/h 96% 0.0 mm 58 W/m2
15:14 4.8 °C 4.2 °C 1015.8 hPa ESE 3.1 km/h 8 km/h 96% 0.0 mm 63 W/m2
15:19 4.8 °C 4.2 °C 1015.8 hPa ESE 3.5 km/h 8 km/h 96% 0.0 mm 76 W/m2
15:24 4.8 °C 4.2 °C 1015.8 hPa ESE 2.2 km/h 5.6 km/h 96% 0.0 mm 79 W/m2
15:29 4.9 °C 4.3 °C 1015.8 hPa NE 2.1 km/h 4.8 km/h 96% 0.0 mm 81 W/m2
15:34 5 °C 4.4 °C 1015.8 hPa NNE 3.2 km/h 6.4 km/h 96% 0.0 mm 74 W/m2
15:39 5 °C 4.4 °C 1015.7 hPa NE 2.7 km/h 6.4 km/h 96% 0.0 mm 47 W/m2
15:44 4.9 °C 4.3 °C 1015.7 hPa ENE 1.4 km/h 5.6 km/h 96% 0.0 mm 30 W/m2
15:49 4.9 °C 4.3 °C 1015.7 hPa Calm     96% 0.0 mm 25 W/m2
15:54 4.9 °C 4.3 °C 1015.7 hPa NE 1.1 km/h 4.8 km/h 96% 0.0 mm 25 W/m2
15:59 4.9 °C 4.3 °C 1015.6 hPa NE 2.2 km/h 5.6 km/h 96% 0.0 mm 21 W/m2
16:04 4.9 °C 4.2 °C 1015.6 hPa NE 2.4 km/h 5.6 km/h 96% 0.0 mm 12 W/m2
16:09 4.9 °C 4.2 °C 1015.6 hPa North 2.5 km/h 5.6 km/h 96% 0.0 mm 12 W/m2
16:14 4.9 °C 4.3 °C 1015.6 hPa North 0.5 km/h 4.8 km/h 96% 0.0 mm 11 W/m2
16:19 4.8 °C 4.2 °C 1015.6 hPa North 1.4 km/h 5.6 km/h 96% 0.0 mm 9 W/m2
16:24 4.8 °C 4.2 °C 1015.8 hPa NNE 2.1 km/h 4.8 km/h 96% 0.0 mm 7 W/m2
16:29 4.8 °C 4.2 °C 1015.8 hPa NNE 3.2 km/h 5.6 km/h 96% 0.0 mm 0 W/m2
16:34 4.8 °C 4.2 °C 1015.7 hPa North 2.1 km/h 5.6 km/h 96% 0.0 mm 0 W/m2
16:39 4.8 °C 4.2 °C 1015.7 hPa NNE 1.4 km/h 4.8 km/h 96% 0.0 mm 0 W/m2
16:44 4.7 °C 4.1 °C 1015.6 hPa NE 0.8 km/h 4.8 km/h 96% 0.0 mm 0 W/m2
16:49 4.7 °C 4.1 °C 1015.7 hPa NNE 3.1 km/h 6.4 km/h 96% 0.0 mm 0 W/m2
16:54 4.7 °C 4.1 °C 1015.7 hPa NNE 2.4 km/h 6.4 km/h 95.8% 0.0 mm 0 W/m2
16:59 4.6 °C 4 °C 1015.7 hPa North 1.8 km/h 5.6 km/h 95.4% 0.0 mm 0 W/m2
17:04 4.6 °C 3.9 °C 1015.6 hPa NE 1.2 km/h 4.8 km/h 95% 0.0 mm 0 W/m2
17:09 4.5 °C 3.8 °C 1015.7 hPa NE 0.8 km/h 3.7 km/h 95% 0.0 mm 0 W/m2
17:14 4.5 °C 3.9 °C 1015.7 hPa NE 0.7 km/h 3.2 km/h 95.6% 0.0 mm 0 W/m2
17:19 4.5 °C 3.9 °C 1015.8 hPa NE 1.7 km/h 3.7 km/h 96% 0.0 mm 0 W/m2
17:24 4.5 °C 3.9 °C 1015.7 hPa East 1.8 km/h 3.7 km/h 96% 0.0 mm 0 W/m2
17:29 4.4 °C 3.9 °C 1015.7 hPa East 0.8 km/h 3.7 km/h 96% 0.0 mm 0 W/m2
17:34 4.4 °C 3.9 °C 1015.7 hPa ENE 1.4 km/h 3.7 km/h 96% 0.0 mm 0 W/m2
17:39 4.5 °C 3.9 °C 1015.7 hPa ENE 2.6 km/h 6.4 km/h 96% 0.0 mm 0 W/m2
17:44 4.4 °C 3.9 °C 1015.6 hPa NE 4.1 km/h 6.4 km/h 96% 0.0 mm 0 W/m2
17:49 4.4 °C 3.9 °C 1015.6 hPa NNW 2.7 km/h 6.4 km/h 96% 0.0 mm 0 W/m2
17:54 4.4 °C 3.8 °C 1015.5 hPa NE 1.6 km/h 4.8 km/h 96% 0.0 mm 0 W/m2
17:59 4.3 °C 3.8 °C 1015.6 hPa East 2.6 km/h 6.4 km/h 96% 0.0 mm 0 W/m2
18:04 4.3 °C 3.7 °C 1015.6 hPa NNE 4.7 km/h 6.4 km/h 96% 0.0 mm 0 W/m2
18:09 4.3 °C 3.7 °C 1015.6 hPa North 3.1 km/h 6.4 km/h 96% 0.0 mm 0 W/m2
18:14 4.3 °C 3.7 °C 1015.6 hPa NE 2.5 km/h 5.6 km/h 96% 0.0 mm 0 W/m2
18:19 4.2 °C 3.7 °C 1015.6 hPa East 2.7 km/h 5.6 km/h 96% 0.0 mm 0 W/m2
18:24 4.2 °C 3.7 °C 1015.6 hPa NE 2.5 km/h 5.6 km/h 96% 0.0 mm 0 W/m2
18:29 4.2 °C 3.6 °C 1015.6 hPa NE 0.5 km/h 4.8 km/h 96% 0.0 mm 0 W/m2
18:34 4.2 °C 3.7 °C 1015.6 hPa East 0.4 km/h 4.8 km/h 96% 0.0 mm 0 W/m2
18:39 4.2 °C 3.6 °C 1015.6 hPa ESE 3.1 km/h 5.6 km/h 96% 0.0 mm 0 W/m2
18:44 4.1 °C 3.6 °C 1015.6 hPa East 3.4 km/h 5.6 km/h 96% 0.0 mm 0 W/m2
18:49 4.1 °C 3.5 °C 1015.6 hPa East 3 km/h 5.6 km/h 96% 0.0 mm 0 W/m2
18:54 4 °C 3.5 °C 1015.7 hPa East 2.2 km/h 4.8 km/h 96% 0.0 mm 0 W/m2
18:59 4 °C 3.4 °C 1015.8 hPa ENE 3.5 km/h 6.4 km/h 96% 0.0 mm 0 W/m2
19:04 4 °C 3.4 °C 1015.8 hPa NE 1.3 km/h 6.4 km/h 96% 0.0 mm 0 W/m2
19:09 4 °C 3.4 °C 1015.8 hPa NE 0.3 km/h 4.8 km/h 96% 0.0 mm 0 W/m2
19:14 4 °C 3.4 °C 1015.8 hPa NE 3.2 km/h 6.4 km/h 96% 0.0 mm 0 W/m2
19:19 4 °C 3.4 °C 1015.8 hPa NE 1.1 km/h 6.4 km/h 96% 0.0 mm 0 W/m2
19:24 4 °C 3.4 °C 1015.9 hPa East 1.5 km/h 3.7 km/h 96% 0.0 mm 0 W/m2
19:29 4 °C 3.4 °C 1015.8 hPa East 1.6 km/h 3.7 km/h 96% 0.0 mm 0 W/m2
19:34 3.9 °C 3.4 °C 1015.8 hPa East 1.4 km/h 3.7 km/h 96% 0.0 mm 0 W/m2
19:39 3.9 °C 3.4 °C 1015.9 hPa SE 1.2 km/h 3.7 km/h 96% 0.0 mm 0 W/m2
19:44 3.9 °C 3.4 °C 1015.9 hPa SSE 1.5 km/h 3.7 km/h 96% 0.0 mm 0 W/m2
19:49 3.9 °C 3.4 °C 1015.9 hPa SE 2.5 km/h 5.6 km/h 96% 0.0 mm 0 W/m2
19:54 3.9 °C 3.3 °C 1015.9 hPa SE 1.4 km/h 4.8 km/h 96% 0.0 mm 0 W/m2
19:59 3.9 °C 3.3 °C 1015.9 hPa Calm   3.2 km/h 96% 0.0 mm 0 W/m2
20:04 3.9 °C 3.3 °C 1015.8 hPa Calm   1.6 km/h 96% 0.0 mm 0 W/m2
20:09 3.9 °C 3.3 °C 1015.8 hPa SE 0.6 km/h 1.9 km/h 96% 0.0 mm 0 W/m2
20:14 3.9 °C 3.3 °C 1015.8 hPa South 2.2 km/h 4.8 km/h 96% 0.0 mm 0 W/m2
20:19 3.9 °C 3.3 °C 1015.8 hPa SW 3.2 km/h 5.6 km/h 96% 0.0 mm 0 W/m2
20:24 3.9 °C 3.3 °C 1015.8 hPa SW 3.1 km/h 5.6 km/h 96% 0.0 mm 0 W/m2
20:29 3.9 °C 3.3 °C 1015.8 hPa SW 1.1 km/h 5.6 km/h 96% 0.0 mm 0 W/m2
20:34 3.8 °C 3.3 °C 1015.8 hPa SW 0.2 km/h 4.8 km/h 96% 0.0 mm 0 W/m2
20:39 3.8 °C 3.3 °C 1015.8 hPa SW 0.1 km/h 1.9 km/h 96% 0.0 mm 0 W/m2
20:44 3.8 °C 3.3 °C 1015.8 hPa SW 0.5 km/h 3.7 km/h 96% 0.0 mm 0 W/m2
20:49 3.8 °C 3.3 °C 1015.8 hPa WNW 2.6 km/h 5.6 km/h 96% 0.0 mm 0 W/m2
20:54 3.8 °C 3.3 °C 1015.8 hPa WNW 0.7 km/h 5.6 km/h 96% 0.0 mm 0 W/m2
20:59 3.8 °C 3.3 °C 1015.6 hPa WNW 0.4 km/h 4.8 km/h 96% 0.0 mm 0 W/m2
21:04 3.8 °C 3.3 °C 1015.6 hPa WNW 1.1 km/h 3.7 km/h 96% 0.0 mm 0 W/m2
21:09 3.8 °C 3.3 °C 1015.6 hPa WNW 2.9 km/h 5.6 km/h 96% 0.0 mm 0 W/m2
21:14 3.8 °C 3.3 °C 1015.6 hPa WNW 3.7 km/h 6.4 km/h 96% 0.0 mm 0 W/m2
21:19 3.8 °C 3.2 °C 1015.6 hPa WNW 3.5 km/h 6.4 km/h 96% 0.0 mm 0 W/m2
21:24 3.7 °C 3.1 °C 1015.6 hPa WNW 3 km/h 5.6 km/h 96% 0.0 mm 0 W/m2
21:29 3.7 °C 3.1 °C 1015.6 hPa WNW 0.8 km/h 5.6 km/h 96% 0.0 mm 0 W/m2
21:34 3.6 °C 3.1 °C 1015.6 hPa SW 1 km/h 5.6 km/h 96% 0.0 mm 0 W/m2
21:39 3.6 °C 3 °C 1015.6 hPa West 2.3 km/h 5.6 km/h 96% 0.0 mm 0 W/m2
21:44 3.5 °C 3 °C 1015.5 hPa West 1 km/h 4.8 km/h 96% 0.0 mm 0 W/m2
21:49 3.5 °C 3 °C 1015.5 hPa SW 2 km/h 5.6 km/h 96% 0.0 mm 0 W/m2
21:54 3.5 °C 3 °C 1015.5 hPa WSW 2.8 km/h 5.6 km/h 96% 0.0 mm 0 W/m2
21:59 3.5 °C 3 °C 1015.5 hPa SW 3.9 km/h 6.4 km/h 96% 0.0 mm 0 W/m2
22:04 3.5 °C 3 °C 1015.5 hPa WSW 3.9 km/h 6.4 km/h 96% 0.0 mm 0 W/m2
22:09 3.6 °C 3 °C 1015.5 hPa SW 2.2 km/h 6.4 km/h 96% 0.0 mm 0 W/m2
22:14 3.5 °C 3 °C 1015.5 hPa SSW 4.2 km/h 8 km/h 96% 0.0 mm 0 W/m2
22:19 3.6 °C 3 °C 1015.5 hPa SSW 3.9 km/h 8 km/h 96% 0.0 mm 0 W/m2
22:24 3.6 °C 3 °C 1015.4 hPa SSW 3.7 km/h 6.4 km/h 96% 0.0 mm 0 W/m2
22:29 3.6 °C 3.1 °C 1015.4 hPa SSW 3.5 km/h 6.4 km/h 96% 0.0 mm 0 W/m2
22:34 3.7 °C 3.1 °C 1015.5 hPa SSW 4.5 km/h 8 km/h 96% 0.0 mm 0 W/m2
22:39 3.7 °C 3.1 °C 1015.6 hPa SSW 5.3 km/h 8 km/h 96% 0.0 mm 0 W/m2
22:44 3.7 °C 3.1 °C 1015.6 hPa SSW 6.4 km/h 8 km/h 96% 0.0 mm 0 W/m2
22:49 3.7 °C 3.2 °C 1015.6 hPa SW 4.9 km/h 8 km/h 96% 0.0 mm 0 W/m2
22:54 3.7 °C 3.2 °C 1015.6 hPa SW 2.5 km/h 8 km/h 96% 0.0 mm 0 W/m2
22:59 3.7 °C 3.2 °C 1015.5 hPa SW 1.8 km/h 5.6 km/h 96% 0.0 mm 0 W/m2
23:04 3.7 °C 3.2 °C 1015.5 hPa SW 2.5 km/h 5.6 km/h 96% 0.0 mm 0 W/m2
23:09 3.7 °C 3.2 °C 1015.5 hPa WSW 1.9 km/h 4.8 km/h 96% 0.0 mm 0 W/m2
23:14 3.7 °C 3.2 °C 1015.4 hPa WNW 1.7 km/h 5.6 km/h 96% 0.0 mm 0 W/m2
23:19 3.8 °C 3.2 °C 1015.5 hPa WNW 3.2 km/h 6.4 km/h 96% 0.0 mm 0 W/m2
23:24 3.8 °C 3.3 °C 1015.5 hPa WNW 3.3 km/h 6.4 km/h 96% 0.0 mm 0 W/m2
23:29 3.8 °C 3.3 °C 1015.4 hPa WNW 3.7 km/h 6.4 km/h 96% 0.0 mm 0 W/m2
23:34 3.9 °C 3.3 °C 1015.4 hPa WNW 1.4 km/h 5.6 km/h 96% 0.0 mm 0 W/m2
23:39 3.9 °C 3.3 °C 1015.3 hPa WNW 2.1 km/h 6.4 km/h 96% 0.0 mm 0 W/m2
23:44 3.9 °C 3.3 °C 1015.3 hPa West 4 km/h 6.4 km/h 96% 0.0 mm 0 W/m2
23:49 3.9 °C 3.4 °C 1015.4 hPa WSW 3.6 km/h 6.4 km/h 96% 0.0 mm 0 W/m2
23:54 3.9 °C 3.4 °C 1015.4 hPa WNW 3.4 km/h 8 km/h 96% 0.0 mm 0 W/m2
23:59 3.9 °C 3.4 °C 1015.4 hPa WNW 3.2 km/h 8 km/h 96% 0.0 mm 0 W/m2
Stazione Meteorologica MeteoMincio Rivalta s/M (MN)
Con i complimenti di Weather Underground - 4 mb


GLOSSARIO METEOROLOGICO
Nube
Insieme di piccolissime particelle di acqua (liquida) o di ghiaccio, oppure dell'una e dell'altro insieme, in sospensione nell'atmosfera. Essa può anche contenere particelle d'acqua, allo stato liquido o solido, di dimensioni più grandi, e particelle provenienti, per esempio, da vapori industriali, da fumo, da polveri.

Do NOT follow this link or you will be banned from the site!